createdAt,value
2018-11-21T00:00:52.666Z,7.49
2018-11-21T00:02:02.250Z,7.52
2018-11-21T00:03:12.359Z,7.45
2018-11-21T00:04:22.193Z,7.48
2018-11-21T00:05:31.992Z,7.52
2018-11-21T00:06:42.046Z,7.56
2018-11-21T00:07:52.262Z,7.56
2018-11-21T00:09:02.058Z,7.59
2018-11-21T00:10:11.857Z,7.63
2018-11-21T00:11:21.657Z,7.7
2018-11-21T00:12:31.519Z,7.67
2018-11-21T00:13:41.125Z,7.61
2018-11-21T00:14:50.938Z,7.61
2018-11-21T00:16:00.734Z,7.68
2018-11-21T00:17:10.815Z,7.73
2018-11-21T00:18:20.883Z,7.67
2018-11-21T00:19:30.433Z,7.73
2018-11-21T00:20:40.235Z,7.68
2018-11-21T00:21:50.039Z,7.68
2018-11-21T00:22:59.852Z,7.71
2018-11-21T00:24:09.948Z,7.68
2018-11-21T00:25:20.069Z,7.71
2018-11-21T00:26:29.859Z,7.68
2018-11-21T00:27:39.924Z,7.64
2018-11-21T00:28:49.998Z,7.64
2018-11-21T00:29:59.819Z,7.63
2018-11-21T00:31:09.637Z,7.63
2018-11-21T00:32:19.439Z,7.64
2018-11-21T00:33:29.503Z,7.63
2018-11-21T00:34:39.315Z,7.63
2018-11-21T00:35:49.117Z,7.59
2018-11-21T00:36:59.200Z,7.63
2018-11-21T00:38:08.736Z,7.64
2018-11-21T00:39:18.529Z,7.74
2018-11-21T00:40:28.383Z,7.63
2018-11-21T00:41:38.205Z,7.74
2018-11-21T00:42:51.922Z,7.71
2018-11-21T00:44:01.199Z,7.68
2018-11-21T00:45:10.841Z,7.82
2018-11-21T00:46:20.374Z,7.75
2018-11-21T00:47:29.915Z,7.77
2018-11-21T00:48:39.717Z,7.74
2018-11-21T00:49:49.798Z,7.77
2018-11-21T00:50:59.585Z,7.8
2018-11-21T00:52:09.649Z,7.86
2018-11-21T00:53:19.179Z,7.8
2018-11-21T00:54:28.980Z,7.86
2018-11-21T00:55:38.312Z,7.85
2018-11-21T00:56:48.385Z,7.88
2018-11-21T00:57:58.462Z,7.88
2018-11-21T00:59:08.519Z,7.82
2018-11-21T01:00:18.699Z,7.83
2018-11-21T01:01:28.495Z,7.86
2018-11-21T01:02:38.082Z,7.83
2018-11-21T01:03:47.893Z,7.86
2018-11-21T01:04:57.732Z,7.83
2018-11-21T01:06:07.784Z,7.86
2018-11-21T01:07:17.857Z,7.89
2018-11-21T01:08:27.392Z,7.85
2018-11-21T01:09:37.262Z,7.85
2018-11-21T01:10:46.531Z,7.88
2018-11-21T01:11:56.637Z,7.88
2018-11-21T01:13:06.689Z,7.85
2018-11-21T01:14:16.758Z,7.71
2018-11-21T01:15:26.283Z,7.77
2018-11-21T01:16:36.358Z,7.73
2018-11-21T01:17:46.417Z,7.68
2018-11-21T01:18:56.484Z,7.71
2018-11-21T01:20:07.652Z,7.74
2018-11-21T01:21:17.712Z,7.67
2018-11-21T01:22:27.778Z,7.68
2018-11-21T01:23:37.888Z,7.7
2018-11-21T01:24:47.447Z,7.67
2018-11-21T01:25:57.512Z,7.61
2018-11-21T01:27:07.328Z,7.59
2018-11-21T01:28:17.127Z,7.59
2018-11-21T01:29:26.656Z,7.63
2018-11-21T01:30:36.724Z,7.64
2018-11-21T01:31:46.521Z,7.63
2018-11-21T01:32:56.586Z,7.71
2018-11-21T01:34:06.132Z,7.67
2018-11-21T01:35:16.246Z,7.7
2018-11-21T01:36:26.303Z,7.68
2018-11-21T01:37:36.350Z,7.71
2018-11-21T01:38:46.166Z,7.67
2018-11-21T01:39:55.954Z,7.61
2018-11-21T01:41:06.812Z,7.67
2018-11-21T01:42:16.607Z,7.77
2018-11-21T01:43:26.667Z,7.7
2018-11-21T01:44:36.728Z,7.71
2018-11-21T01:45:46.544Z,7.7
2018-11-21T01:46:56.335Z,7.73
2018-11-21T01:48:06.149Z,7.64
2018-11-21T01:49:15.945Z,7.67
2018-11-21T01:50:25.733Z,7.68
2018-11-21T01:51:35.791Z,7.7
2018-11-21T01:52:45.877Z,7.7
2018-11-21T01:53:55.677Z,7.75
2018-11-21T01:55:05.574Z,7.7
2018-11-21T01:56:15.373Z,7.64
2018-11-21T01:57:25.432Z,7.73
2018-11-21T01:58:35.493Z,7.7
2018-11-21T01:59:45.554Z,7.74
2018-11-21T02:00:55.620Z,7.64
2018-11-21T02:02:06.189Z,7.77
2018-11-21T02:03:16.253Z,7.71
2018-11-21T02:04:26.170Z,7.7
2018-11-21T02:05:36.236Z,7.7
2018-11-21T02:06:46.290Z,7.7
2018-11-21T02:07:56.359Z,7.74
2018-11-21T02:09:07.918Z,7.7
2018-11-21T02:10:17.992Z,7.68
2018-11-21T02:11:27.786Z,7.67
2018-11-21T02:12:37.851Z,7.67
2018-11-21T02:13:47.663Z,7.64
2018-11-21T02:14:57.739Z,7.58
2018-11-21T02:16:07.856Z,7.63
2018-11-21T02:17:17.656Z,7.61
2018-11-21T02:18:27.454Z,7.67
2018-11-21T02:19:37.529Z,7.64
2018-11-21T02:20:47.583Z,7.64
2018-11-21T02:21:57.117Z,7.73
2018-11-21T02:23:07.196Z,7.74
2018-11-21T02:24:16.993Z,7.73
2018-11-21T02:25:26.517Z,7.64
2018-11-21T02:26:36.321Z,7.73
2018-11-21T02:27:46.111Z,7.68
2018-11-21T02:28:55.907Z,7.75
2018-11-21T02:30:08.302Z,7.74
2018-11-21T02:31:18.124Z,7.73
2018-11-21T02:32:27.924Z,7.68
2018-11-21T02:33:37.992Z,7.67
2018-11-21T02:34:48.053Z,7.68
2018-11-21T02:35:57.859Z,7.7
2018-11-21T02:37:07.695Z,7.68
2018-11-21T02:38:17.768Z,7.71
2018-11-21T02:39:27.579Z,7.68
2018-11-21T02:40:36.856Z,7.75
2018-11-21T02:41:46.649Z,7.73
2018-11-21T02:42:56.508Z,7.78
2018-11-21T02:44:07.447Z,7.74
2018-11-21T02:45:17.520Z,7.74
2018-11-21T02:46:27.582Z,7.73
2018-11-21T02:47:37.649Z,7.77
2018-11-21T02:48:47.443Z,7.77
2018-11-21T02:49:57.312Z,7.8
2018-11-21T02:51:07.389Z,7.86
2018-11-21T02:52:17.506Z,7.8
2018-11-21T02:53:27.305Z,7.86
2018-11-21T02:54:37.151Z,7.83
2018-11-21T02:55:46.954Z,7.86
2018-11-21T02:56:56.491Z,7.83
2018-11-21T02:58:06.282Z,7.92
2018-11-21T02:59:16.354Z,7.88
2018-11-21T03:00:26.452Z,7.77
2018-11-21T03:01:36.244Z,7.86
2018-11-21T03:02:46.040Z,7.78
2018-11-21T03:34:55.082Z,6.02
2018-11-21T03:36:05.181Z,5.88
2018-11-21T03:37:15.241Z,5.89
2018-11-21T03:38:25.027Z,6
2018-11-21T03:39:35.095Z,5.87
2018-11-21T03:40:45.170Z,6.03
2018-11-21T03:41:54.718Z,6.17
2018-11-21T03:43:04.009Z,6.1
2018-11-21T03:44:13.545Z,6.37
2018-11-21T03:45:23.610Z,6.4
2018-11-21T03:46:33.415Z,6.42
2018-11-21T03:47:43.276Z,6.57
2018-11-21T03:48:53.344Z,6.72
2018-11-21T03:50:05.567Z,6.82
2018-11-21T03:51:15.373Z,6.83
2018-11-21T03:52:24.448Z,6.94
2018-11-21T03:53:34.237Z,7
2018-11-21T03:54:44.297Z,7.11
2018-11-21T03:55:54.338Z,7.22
2018-11-21T03:57:04.139Z,7.27
2018-11-21T03:58:14.257Z,7.26
2018-11-21T03:59:24.047Z,7.34
2018-11-21T04:00:34.100Z,7.4
2018-11-21T04:01:44.165Z,7.34
2018-11-21T04:02:53.699Z,7.51
2018-11-21T04:04:03.671Z,7.55
2018-11-21T04:05:13.762Z,7.71
2018-11-21T04:06:23.568Z,7.63
2018-11-21T04:07:33.642Z,7.64
2018-11-21T04:08:47.426Z,7.7
2018-11-21T04:09:58.333Z,7.75
2018-11-21T04:11:10.537Z,7.82
2018-11-21T04:12:20.632Z,7.82
2018-11-21T04:13:30.696Z,7.89
2018-11-21T04:14:40.763Z,7.89
2018-11-21T04:15:50.608Z,7.91
2018-11-21T04:17:00.407Z,7.85
2018-11-21T04:18:10.480Z,7.95
2018-11-21T04:19:20.551Z,8.01
2018-11-21T04:20:30.362Z,7.93
2018-11-21T04:21:40.221Z,7.99
2018-11-21T04:22:50.292Z,7.96
2018-11-21T04:24:00.091Z,7.95
2018-11-21T04:25:10.166Z,7.91
2018-11-21T04:26:20.220Z,8.03
2018-11-21T04:27:30.290Z,7.98
2018-11-21T04:28:40.357Z,7.96
2018-11-21T04:29:49.884Z,7.91
2018-11-21T04:30:59.948Z,7.92
2018-11-21T04:32:10.024Z,8.06
2018-11-21T04:33:19.874Z,7.93
2018-11-21T04:34:29.936Z,7.99
2018-11-21T04:35:39.194Z,7.95
2018-11-21T04:36:49.011Z,7.96
2018-11-21T04:37:59.089Z,7.91
2018-11-21T04:39:08.684Z,7.98
2018-11-21T04:40:17.965Z,8.01
2018-11-21T04:41:27.775Z,7.98
2018-11-21T04:42:37.594Z,7.95
2018-11-21T04:43:46.875Z,8.01
2018-11-21T04:44:56.731Z,8.04
2018-11-21T04:46:06.811Z,7.98
2018-11-21T04:47:16.882Z,7.98
2018-11-21T04:48:26.696Z,8.04
2018-11-21T04:49:36.759Z,8.01
2018-11-21T04:50:46.299Z,7.99
2018-11-21T04:51:56.107Z,8.03
2018-11-21T04:53:05.656Z,8.04
2018-11-21T04:54:15.733Z,8.04
2018-11-21T04:55:25.823Z,8.1
2018-11-21T04:56:35.684Z,8.1
2018-11-21T04:57:45.765Z,8.1
2018-11-21T04:58:55.821Z,8.11
2018-11-21T05:00:07.752Z,8.13
2018-11-21T05:01:17.816Z,8.07
2018-11-21T05:02:27.944Z,8.11
2018-11-21T05:03:38.085Z,8.07
2018-11-21T05:04:48.143Z,8.16
2018-11-21T05:05:57.956Z,8.09
2018-11-21T05:07:07.743Z,8.06
2018-11-21T05:08:17.273Z,8.1
2018-11-21T05:09:27.076Z,8.06
2018-11-21T05:10:36.619Z,8.03
2018-11-21T05:11:46.701Z,8.01
2018-11-21T05:12:56.234Z,8.01
2018-11-21T05:14:06.356Z,7.95
2018-11-21T05:15:16.407Z,7.91
2018-11-21T05:16:26.214Z,7.91
2018-11-21T05:17:36.018Z,7.93
2018-11-21T05:18:45.836Z,7.96
2018-11-21T05:19:55.677Z,7.91
2018-11-21T05:21:07.495Z,7.98
2018-11-21T05:22:17.025Z,8.01
2018-11-21T05:23:27.086Z,7.89
2018-11-21T05:24:36.897Z,8.03
2018-11-21T05:25:45.896Z,7.99
2018-11-21T05:26:55.970Z,8.01
2018-11-21T05:28:06.592Z,7.92
2018-11-21T05:29:16.396Z,7.93
2018-11-21T05:30:25.407Z,7.98
2018-11-21T05:31:35.218Z,7.98
2018-11-21T05:32:44.748Z,8.04
2018-11-21T05:33:54.823Z,8.06
2018-11-21T05:35:05.005Z,8.03
2018-11-21T05:36:14.290Z,7.98
2018-11-21T05:37:24.103Z,8.03
2018-11-21T05:38:34.186Z,7.91
2018-11-21T05:39:43.985Z,8.04
2018-11-21T05:40:53.553Z,8.04
2018-11-21T05:42:05.179Z,7.99
2018-11-21T05:43:14.733Z,8.09
2018-11-21T05:44:24.668Z,8.1
2018-11-21T05:45:40.601Z,8.11
2018-11-21T05:46:56.118Z,8.22
2018-11-21T05:48:05.974Z,8.17
2018-11-21T05:49:16.026Z,8.21
2018-11-21T05:50:26.068Z,8.26
2018-11-21T05:51:35.890Z,8.19
2018-11-21T05:52:45.942Z,8.26
2018-11-21T05:53:55.728Z,8.32
2018-11-21T05:55:05.929Z,8.21
2018-11-21T05:56:15.208Z,8.32
2018-11-21T05:57:24.737Z,8.31
2018-11-21T05:58:34.790Z,8.28
2018-11-21T05:59:44.597Z,8.34
2018-11-21T06:00:54.142Z,8.28
2018-11-21T06:02:03.949Z,8.22
2018-11-21T06:03:13.776Z,8.26
2018-11-21T06:04:23.593Z,8.28
2018-11-21T06:05:33.521Z,8.24
2018-11-21T06:06:43.341Z,8.26
2018-11-21T06:07:53.139Z,8.21
2018-11-21T06:09:05.769Z,8.17
2018-11-21T06:10:15.831Z,8.28
2018-11-21T06:11:25.370Z,8.32
2018-11-21T06:12:34.898Z,8.25
2018-11-21T06:13:44.974Z,8.29
2018-11-21T06:14:55.035Z,8.29
2018-11-21T06:16:04.884Z,8.17
2018-11-21T06:17:14.708Z,8.26
2018-11-21T06:18:24.245Z,8.13
2018-11-21T06:19:34.300Z,8.26
2018-11-21T06:20:43.873Z,8.36
2018-11-21T06:21:53.426Z,8.26
2018-11-21T06:23:03.226Z,8.32
2018-11-21T06:24:13.296Z,8.32
2018-11-21T06:25:23.099Z,8.32
2018-11-21T06:26:33.165Z,8.36
2018-11-21T06:27:42.968Z,8.4
2018-11-21T06:28:52.774Z,8.31
2018-11-21T06:30:02.570Z,8.29
2018-11-21T06:31:12.143Z,8.28
2018-11-21T06:32:22.195Z,8.4
2018-11-21T06:33:32.002Z,8.43
2018-11-21T06:34:41.795Z,8.44
2018-11-21T06:35:51.857Z,8.46
2018-11-21T06:37:01.687Z,8.47
2018-11-21T06:38:11.760Z,8.43
2018-11-21T06:39:23.009Z,8.46
2018-11-21T06:40:33.071Z,8.5
2018-11-21T06:41:43.145Z,8.47
2018-11-21T06:42:53.200Z,8.44
2018-11-21T06:44:03.042Z,8.46
2018-11-21T06:45:12.864Z,8.47
2018-11-21T06:46:22.710Z,8.52
2018-11-21T06:47:32.768Z,8.43
2018-11-21T06:48:42.827Z,8.43
2018-11-21T06:49:52.635Z,8.57
2018-11-21T06:51:03.338Z,8.44
2018-11-21T06:52:13.454Z,8.43
2018-11-21T06:53:29.895Z,8.49
2018-11-21T06:54:39.949Z,8.49
2018-11-21T06:55:50.003Z,8.61
2018-11-21T06:57:00.092Z,8.43
2018-11-21T06:58:10.153Z,8.5
2018-11-21T06:59:20.219Z,8.44
2018-11-21T07:00:30.311Z,8.49
2018-11-21T07:01:40.393Z,8.58
2018-11-21T07:02:50.191Z,8.5
2018-11-21T07:04:02.962Z,8.62
2018-11-21T07:05:12.783Z,8.53
2018-11-21T07:06:22.848Z,8.57
2018-11-21T07:07:32.657Z,8.61
2018-11-21T07:08:42.447Z,8.54
2018-11-21T07:09:51.475Z,8.65
2018-11-21T07:11:01.013Z,8.69
2018-11-21T07:12:11.084Z,8.71
2018-11-21T07:13:21.180Z,8.65
2018-11-21T07:14:31.240Z,8.61
2018-11-21T07:15:41.372Z,8.64
2018-11-21T07:16:51.155Z,8.61
2018-11-21T07:18:00.969Z,8.6
2018-11-21T07:19:11.037Z,8.61
2018-11-21T07:20:21.106Z,8.65
2018-11-21T07:21:31.176Z,8.72
2018-11-21T07:22:40.996Z,8.68
2018-11-21T07:23:50.286Z,8.64
2018-11-21T07:25:00.345Z,8.68
2018-11-21T07:26:10.473Z,8.71
2018-11-21T07:27:20.549Z,8.71
2018-11-21T07:28:30.624Z,8.72
2018-11-21T07:29:40.424Z,8.74
2018-11-21T07:30:50.486Z,8.8
2018-11-21T07:32:00.036Z,8.74
2018-11-21T07:33:10.095Z,8.83
2018-11-21T07:34:20.166Z,8.72
2018-11-21T07:35:29.987Z,8.71
2018-11-21T07:36:40.042Z,8.77
2018-11-21T07:37:49.836Z,8.72
2018-11-21T07:38:59.916Z,8.82
2018-11-21T07:40:10.025Z,8.74
2018-11-21T07:41:20.103Z,8.72
2018-11-21T07:42:29.899Z,8.71
2018-11-21T07:43:39.964Z,8.71
2018-11-21T07:44:50.047Z,8.74
2018-11-21T07:45:59.579Z,8.67
2018-11-21T07:47:09.658Z,8.71
2018-11-21T07:48:25.333Z,8.72
2018-11-21T07:49:35.132Z,8.71
2018-11-21T07:50:45.190Z,8.77
2018-11-21T07:51:55.253Z,8.68
2018-11-21T07:53:05.328Z,8.72
2018-11-21T07:54:15.386Z,8.79
2018-11-21T07:55:25.481Z,8.83
2018-11-21T07:56:35.558Z,8.72
2018-11-21T07:57:45.646Z,8.76
2018-11-21T07:58:55.715Z,8.76
2018-11-21T08:00:08.037Z,8.8
2018-11-21T08:01:17.838Z,8.8
2018-11-21T08:02:27.649Z,8.76
2018-11-21T08:03:37.483Z,8.82
2018-11-21T08:04:47.296Z,8.76
2018-11-21T08:05:57.379Z,8.82
2018-11-21T08:07:07.474Z,8.83
2018-11-21T08:08:17.586Z,8.77
2018-11-21T08:09:27.658Z,8.79
2018-11-21T08:10:37.469Z,8.79
2018-11-21T08:11:47.549Z,8.94
2018-11-21T08:12:57.615Z,8.89
2018-11-21T08:14:07.691Z,9
2018-11-21T08:15:24.143Z,8.94
2018-11-21T08:16:34.209Z,9.09
2018-11-21T08:17:44.256Z,9.12
2018-11-21T08:18:54.319Z,9.14
2018-11-21T08:20:05.518Z,9.14
2018-11-21T08:21:15.601Z,9.19
2018-11-21T08:22:25.672Z,9.08
2018-11-21T08:23:35.219Z,9.05
2018-11-21T08:24:45.284Z,9.11
2018-11-21T08:25:55.358Z,9.16
2018-11-21T08:27:05.525Z,9.2
2018-11-21T08:28:15.604Z,9.17
2018-11-21T08:29:25.412Z,9.12
2018-11-21T08:30:35.492Z,9.16
2018-11-21T08:31:45.297Z,9.11
2018-11-21T08:32:55.349Z,9.16
2018-11-21T08:34:05.152Z,9.21
2018-11-21T08:35:15.210Z,9.23
2018-11-21T08:36:25.015Z,9.29
2018-11-21T08:37:35.130Z,9.34
2018-11-21T08:38:45.189Z,9.34
2018-11-21T08:39:55.258Z,9.32
2018-11-21T08:41:04.797Z,9.29
2018-11-21T08:42:14.667Z,9.32
2018-11-21T08:43:24.813Z,9.32
2018-11-21T08:44:34.380Z,9.32
2018-11-21T08:45:44.463Z,9.3
2018-11-21T08:46:54.835Z,9.29
2018-11-21T08:48:11.155Z,9.24
2018-11-21T08:49:23.220Z,9.21
2018-11-21T08:50:33.297Z,9.27
2018-11-21T08:51:43.391Z,9.29
2018-11-21T08:52:53.579Z,9.23
2018-11-21T08:54:03.849Z,9.27
2018-11-21T08:55:14.602Z,9.17
2018-11-21T08:56:24.967Z,9.26
2018-11-21T08:57:35.817Z,9.26
2018-11-21T08:58:46.921Z,9.32
2018-11-21T08:59:57.028Z,9.26
2018-11-21T09:01:08.773Z,9.27
2018-11-21T09:02:19.958Z,9.37
2018-11-21T09:03:31.031Z,9.39
2018-11-21T09:04:42.572Z,9.39
2018-11-21T09:05:53.753Z,9.37
2018-11-21T09:07:05.060Z,9.3
2018-11-21T09:08:15.175Z,9.35
2018-11-21T09:09:25.282Z,9.38
2018-11-21T09:11:44.886Z,9.34
2018-11-21T09:12:54.972Z,9.34
2018-11-21T09:14:05.572Z,9.34
2018-11-21T09:15:15.688Z,9.34
2018-11-21T09:16:25.771Z,9.24
2018-11-21T09:17:35.941Z,9.26
2018-11-21T09:18:46.052Z,9.3
2018-11-21T09:19:55.921Z,9.27
2018-11-21T09:21:06.012Z,9.24
2018-11-21T09:22:16.442Z,9.26
2018-11-21T09:23:26.587Z,9.23
2018-11-21T09:24:36.725Z,9.35
2018-11-21T09:25:46.828Z,9.32
2018-11-21T09:26:57.235Z,9.35
2018-11-21T09:28:08.782Z,9.34
2018-11-21T09:29:18.855Z,9.41
2018-11-21T09:30:29.003Z,9.41
2018-11-21T09:31:38.840Z,9.47
2018-11-21T09:32:48.892Z,9.47
2018-11-21T09:33:58.980Z,9.45
2018-11-21T09:35:09.294Z,9.5
2018-11-21T09:36:18.916Z,9.5
2018-11-21T09:37:28.790Z,9.52
2018-11-21T09:38:39.920Z,9.53
2018-11-21T09:39:50.003Z,9.62
2018-11-21T09:41:02.071Z,9.56
2018-11-21T09:42:12.299Z,9.52
2018-11-21T09:43:22.106Z,9.5
2018-11-21T09:44:32.194Z,9.45
2018-11-21T09:45:42.069Z,9.56
2018-11-21T09:46:52.156Z,9.5
2018-11-21T09:48:16.901Z,9.53
2018-11-21T09:49:27.046Z,9.53
2018-11-21T09:50:36.861Z,9.53
2018-11-21T09:51:46.686Z,9.62
2018-11-21T09:52:56.563Z,9.55
2018-11-21T09:54:06.887Z,9.5
2018-11-21T09:55:16.740Z,9.6
2018-11-21T09:56:26.828Z,9.56
2018-11-21T09:57:36.897Z,9.63
2018-11-21T09:58:47.261Z,9.7
2018-11-21T09:59:57.082Z,9.66
2018-11-21T10:01:08.267Z,9.63
2018-11-21T10:02:18.346Z,9.6
2018-11-21T10:03:28.513Z,9.6
2018-11-21T10:04:38.646Z,9.66
2018-11-21T10:05:48.468Z,9.64
2018-11-21T10:06:58.275Z,9.66
2018-11-21T10:08:10.979Z,9.74
2018-11-21T10:09:20.784Z,9.77
2018-11-21T10:10:30.972Z,9.64
2018-11-21T10:11:40.790Z,9.64
2018-11-21T10:12:50.892Z,9.63
2018-11-21T10:14:00.708Z,9.6
2018-11-21T10:15:10.805Z,9.74
2018-11-21T10:16:20.664Z,9.72
2018-11-21T10:17:30.468Z,9.8
2018-11-21T10:18:40.029Z,9.8
2018-11-21T10:19:50.109Z,9.74
2018-11-21T10:21:00.400Z,9.81
2018-11-21T10:22:10.248Z,9.77
2018-11-21T10:23:20.092Z,9.75
2018-11-21T10:24:30.163Z,9.7
2018-11-21T10:25:40.214Z,9.77
2018-11-21T10:26:49.769Z,9.81
2018-11-21T10:27:59.846Z,9.82
2018-11-21T10:29:09.404Z,10.02
2018-11-21T10:30:19.455Z,10.03
2018-11-21T10:31:29.271Z,10.11
2018-11-21T10:32:39.362Z,10.11
2018-11-21T10:33:49.431Z,10.18
2018-11-21T10:34:59.246Z,10.23
2018-11-21T10:36:09.296Z,10.36
2018-11-21T10:37:19.108Z,10.39
2018-11-21T10:38:29.176Z,10.44
2018-11-21T10:39:39.004Z,10.52
2018-11-21T10:40:49.075Z,10.47
2018-11-21T10:41:59.147Z,10.51
2018-11-21T10:43:08.980Z,10.65
2018-11-21T10:44:19.065Z,10.67
2018-11-21T10:45:29.146Z,10.57
2018-11-21T10:46:39.219Z,10.65
2018-11-21T10:47:48.773Z,10.59
2018-11-21T10:48:58.860Z,10.58
2018-11-21T10:50:09.008Z,10.49
2018-11-21T10:51:19.952Z,10.54
2018-11-21T10:52:34.089Z,10.51
2018-11-21T10:53:43.930Z,10.63
2018-11-21T10:54:53.724Z,10.79
2018-11-21T10:56:03.534Z,10.92
2018-11-21T10:57:13.409Z,10.9
2018-11-21T10:58:23.472Z,10.83
2018-11-21T10:59:33.269Z,10.88
2018-11-21T11:00:43.401Z,10.9
2018-11-21T11:01:53.213Z,10.75
2018-11-21T11:03:02.812Z,10.69
2018-11-21T11:04:12.896Z,10.66
2018-11-21T11:05:22.692Z,10.57
2018-11-21T11:06:32.833Z,10.52
2018-11-21T11:07:44.271Z,10.52
2018-11-21T11:08:54.451Z,10.58
2018-11-21T11:10:05.055Z,10.52
2018-11-21T11:11:15.151Z,10.51
2018-11-21T11:12:25.207Z,10.55
2018-11-21T11:13:37.923Z,10.61
2018-11-21T11:14:47.464Z,10.58
2018-11-21T11:15:57.537Z,10.59
2018-11-21T11:17:07.968Z,10.61
2018-11-21T11:18:18.061Z,10.69
2018-11-21T11:19:28.143Z,10.79
2018-11-21T11:20:38.212Z,10.83
2018-11-21T11:21:48.272Z,10.87
2018-11-21T11:22:58.342Z,10.8
2018-11-21T11:24:09.065Z,10.79
2018-11-21T11:25:19.153Z,10.75
2018-11-21T11:26:29.274Z,10.76
2018-11-21T11:27:39.337Z,10.8
2018-11-21T11:28:49.459Z,10.76
2018-11-21T11:29:59.270Z,10.77
2018-11-21T11:31:09.604Z,10.73
2018-11-21T11:32:19.410Z,10.69
2018-11-21T11:33:29.276Z,10.69
2018-11-21T11:34:39.106Z,10.66
2018-11-21T11:35:49.188Z,10.65
2018-11-21T11:36:59.042Z,10.59
2018-11-21T11:38:09.160Z,10.61
2018-11-21T11:39:19.247Z,10.65
2018-11-21T11:40:29.044Z,10.61
2018-11-21T11:41:38.711Z,10.55
2018-11-21T11:42:48.278Z,10.49
2018-11-21T11:43:57.890Z,10.52
2018-11-21T11:45:10.185Z,10.52
2018-11-21T11:46:20.033Z,10.57
2018-11-21T11:47:30.460Z,10.59
2018-11-21T11:48:40.589Z,10.67
2018-11-21T11:49:50.862Z,10.69
2018-11-21T11:51:01.487Z,10.61
2018-11-21T11:52:12.031Z,10.69
2018-11-21T11:53:22.096Z,10.67
2018-11-21T11:54:32.195Z,10.66
2018-11-21T11:55:42.303Z,10.63
2018-11-21T11:56:52.169Z,10.61
2018-11-21T11:58:02.817Z,10.63
2018-11-21T11:59:13.918Z,10.55
2018-11-21T12:00:24.664Z,10.65
2018-11-21T12:01:35.151Z,10.52
2018-11-21T12:02:45.643Z,10.57
2018-11-21T12:04:02.570Z,10.69
2018-11-21T12:05:14.128Z,10.57
2018-11-21T12:06:25.732Z,10.63
2018-11-21T12:07:35.539Z,10.49
2018-11-21T12:08:47.403Z,10.49
2018-11-21T12:09:59.075Z,10.51
2018-11-21T12:11:09.636Z,10.63
2018-11-21T12:12:20.915Z,10.61
2018-11-21T12:13:31.719Z,10.63
2018-11-21T12:14:43.164Z,10.7
2018-11-21T12:15:53.320Z,10.69
2018-11-21T12:17:04.616Z,10.69
2018-11-21T12:18:16.023Z,10.77
2018-11-21T12:19:27.170Z,10.8
2018-11-21T12:20:38.873Z,10.8
2018-11-21T12:21:53.949Z,10.88
2018-11-21T12:23:05.181Z,10.92
2018-11-21T12:24:14.898Z,10.97
2018-11-21T12:25:24.935Z,11.05
2018-11-21T12:26:35.983Z,11.06
2018-11-21T12:27:48.548Z,11.1
2018-11-21T12:29:00.128Z,11.05
2018-11-21T12:30:11.053Z,10.95
2018-11-21T12:31:21.900Z,10.95
2018-11-21T12:32:33.431Z,10.98
2018-11-21T12:33:47.735Z,10.94
2018-11-21T12:34:58.549Z,10.84
2018-11-21T12:36:09.566Z,10.91
2018-11-21T12:37:21.442Z,10.76
2018-11-21T12:38:34.792Z,10.77
2018-11-21T12:39:47.985Z,10.66
2018-11-21T12:40:59.217Z,10.59
2018-11-21T12:42:10.793Z,10.57
2018-11-21T12:43:23.278Z,10.49
2018-11-21T12:44:34.910Z,10.49
2018-11-21T12:45:45.732Z,10.51
2018-11-21T12:46:56.547Z,10.49
2018-11-21T12:48:09.985Z,10.46
2018-11-21T12:49:21.531Z,10.46
2018-11-21T12:50:32.043Z,10.39
2018-11-21T12:51:42.855Z,10.44
2018-11-21T12:52:53.378Z,10.52
2018-11-21T12:54:04.767Z,10.58
2018-11-21T12:55:17.000Z,10.65
2018-11-21T12:56:28.596Z,10.61
2018-11-21T12:57:41.006Z,10.52
2018-11-21T12:58:51.531Z,10.41
2018-11-21T13:00:03.380Z,10.36
2018-11-21T13:01:16.470Z,10.35
2018-11-21T13:02:29.326Z,10.39
2018-11-21T13:03:40.552Z,10.25
2018-11-21T13:04:51.657Z,10.29
2018-11-21T13:06:02.542Z,10.29
2018-11-21T13:07:13.011Z,10.18
2018-11-21T13:08:23.361Z,10.14
2018-11-21T13:09:34.213Z,10.14
2018-11-21T13:10:46.024Z,10.02
2018-11-21T13:11:58.027Z,10.03
2018-11-21T13:13:09.747Z,10.08
2018-11-21T13:14:21.823Z,10.02
2018-11-21T13:15:33.488Z,10.08
2018-11-21T13:16:49.197Z,10.17
2018-11-21T13:18:00.053Z,10.2
2018-11-21T13:19:12.791Z,10.13
2018-11-21T13:20:25.099Z,10.21
2018-11-21T13:21:35.661Z,10.29
2018-11-21T13:22:45.945Z,10.21
2018-11-21T13:23:57.082Z,10.28
2018-11-21T13:25:08.026Z,10.18
2018-11-21T13:26:18.340Z,10.29
2018-11-21T13:27:29.417Z,10.26
2018-11-21T13:28:41.440Z,10.25
2018-11-21T13:29:53.536Z,10.25
2018-11-21T13:31:03.989Z,10.23
2018-11-21T13:32:14.460Z,10.14
2018-11-21T13:33:25.424Z,10.14
2018-11-21T13:34:36.385Z,10.15
2018-11-21T13:35:46.938Z,10.18
2018-11-21T13:36:56.977Z,10.18
2018-11-21T13:38:08.188Z,10.15
2018-11-21T13:39:18.259Z,10.17
2018-11-21T13:40:28.317Z,10.13
2018-11-21T13:41:38.379Z,10.11
2018-11-21T13:42:48.552Z,10.03
2018-11-21T13:43:58.476Z,10.05
2018-11-21T13:45:10.436Z,10.1
2018-11-21T13:46:20.272Z,9.95
2018-11-21T13:47:30.078Z,9.96
2018-11-21T13:48:40.504Z,9.95
2018-11-21T13:49:50.317Z,9.95
2018-11-21T13:51:01.447Z,9.95
2018-11-21T13:52:10.994Z,9.98
2018-11-21T13:53:20.809Z,9.95
2018-11-21T13:54:30.161Z,9.92
2018-11-21T13:55:40.230Z,10
2018-11-21T13:56:50.366Z,9.96
2018-11-21T13:58:01.184Z,9.92
2018-11-21T13:59:11.141Z,9.88
2018-11-21T14:00:21.253Z,9.95
2018-11-21T14:01:31.348Z,9.84
2018-11-21T14:02:40.833Z,9.89
2018-11-21T14:03:50.657Z,9.85
2018-11-21T14:05:02.409Z,9.84
2018-11-21T14:06:12.515Z,9.81
2018-11-21T14:07:22.657Z,9.85
2018-11-21T14:08:32.471Z,9.82
2018-11-21T14:09:42.554Z,9.84
2018-11-21T14:10:52.621Z,9.88
2018-11-21T14:12:02.801Z,9.85
2018-11-21T14:13:12.699Z,9.81
2018-11-21T14:14:22.547Z,9.81
2018-11-21T14:15:32.883Z,9.78
2018-11-21T14:16:43.051Z,9.74
2018-11-21T14:17:52.972Z,9.71
2018-11-21T14:19:02.807Z,9.8
2018-11-21T14:20:12.744Z,9.63
2018-11-21T14:21:22.850Z,9.7
2018-11-21T14:22:32.944Z,9.71
2018-11-21T14:23:42.997Z,9.63
2018-11-21T14:24:53.116Z,9.63
2018-11-21T14:26:02.783Z,9.77
2018-11-21T14:27:12.344Z,9.74
2018-11-21T14:28:22.168Z,9.63
2018-11-21T14:29:32.313Z,9.63
2018-11-21T14:30:42.157Z,9.63
2018-11-21T14:31:52.228Z,9.64
2018-11-21T14:33:02.326Z,9.67
2018-11-21T14:34:14.176Z,9.7
2018-11-21T14:35:29.903Z,9.66
2018-11-21T14:36:45.755Z,9.64
2018-11-21T14:38:01.805Z,9.56
2018-11-21T14:39:17.829Z,9.53
2018-11-21T14:40:31.989Z,9.59
2018-11-21T14:41:44.714Z,9.63
2018-11-21T14:42:54.607Z,9.56
2018-11-21T14:44:04.452Z,9.55
2018-11-21T14:45:14.374Z,9.55
2018-11-21T14:46:24.223Z,9.57
2018-11-21T14:47:33.787Z,9.6
2018-11-21T14:48:43.887Z,9.66
2018-11-21T14:49:53.691Z,9.6
2018-11-21T14:51:03.812Z,9.62
2018-11-21T14:52:13.620Z,9.6
2018-11-21T14:53:24.014Z,9.53
2018-11-21T14:54:34.164Z,9.56
2018-11-21T14:55:44.954Z,9.47
2018-11-21T14:56:55.558Z,9.62
2018-11-21T14:58:06.565Z,9.66
2018-11-21T14:59:16.742Z,9.56
2018-11-21T15:00:26.110Z,9.53
2018-11-21T15:01:35.696Z,9.53
2018-11-21T15:03:00.473Z,9.59
2018-11-21T15:04:11.995Z,9.56
2018-11-21T15:05:21.948Z,9.52
2018-11-21T15:06:32.078Z,9.59
2018-11-21T15:07:42.307Z,9.55
2018-11-21T15:08:52.480Z,9.62
2018-11-21T15:10:06.058Z,9.57
2018-11-21T15:11:16.326Z,9.53
2018-11-21T15:12:26.555Z,9.48
2018-11-21T15:13:36.675Z,9.41
2018-11-21T15:14:46.832Z,9.44
2018-11-21T15:15:56.881Z,9.39
2018-11-21T15:17:06.711Z,9.3
2018-11-21T15:18:16.779Z,9.41
2018-11-21T15:19:26.638Z,9.34
2018-11-21T15:20:36.781Z,9.35
2018-11-21T15:21:46.603Z,9.38
2018-11-21T15:22:56.699Z,9.29
2018-11-21T15:24:07.331Z,9.37
2018-11-21T15:25:17.733Z,9.38
2018-11-21T15:26:27.609Z,9.37
2018-11-21T15:27:37.695Z,9.39
2018-11-21T15:28:47.530Z,9.27
2018-11-21T15:30:02.660Z,9.32
2018-11-21T15:31:12.768Z,9.26
2018-11-21T15:32:22.887Z,9.29
2018-11-21T15:33:32.950Z,9.29
2018-11-21T15:34:43.026Z,9.27
2018-11-21T15:35:52.838Z,9.29
2018-11-21T15:37:05.629Z,9.27
2018-11-21T15:38:15.752Z,9.27
2018-11-21T15:39:25.879Z,9.26
2018-11-21T15:40:35.989Z,9.26
2018-11-21T15:41:46.161Z,9.23
2018-11-21T15:42:55.997Z,9.21
2018-11-21T15:44:05.744Z,9.23
2018-11-21T15:45:15.316Z,9.29
2018-11-21T15:46:25.399Z,9.2
2018-11-21T15:47:34.735Z,9.16
2018-11-21T15:48:44.802Z,9.16
2018-11-21T15:49:54.663Z,9.14
2018-11-21T15:51:04.489Z,9.19
2018-11-21T15:52:14.590Z,9.09
2018-11-21T15:53:24.404Z,9.12
2018-11-21T15:54:34.483Z,9.24
2018-11-21T15:55:44.362Z,9.12
2018-11-21T15:56:53.922Z,9.21
2018-11-21T15:58:03.449Z,9.17
2018-11-21T15:59:13.400Z,9.24
2018-11-21T16:00:22.678Z,9.23
2018-11-21T16:01:32.547Z,9.26
2018-11-21T16:02:42.616Z,9.21
2018-11-21T16:03:52.526Z,9.27
2018-11-21T16:05:02.345Z,9.21